sensor_id;sensor_type;location;lat;lon;timestamp;P1;durP1;ratioP1;P2;durP2;ratioP2
15096;SDS011;7649;52.084;7.478;2023-07-20T00:00:35;2.95;;;2.75;;
15096;SDS011;7649;52.084;7.478;2023-07-20T00:03:10;3.13;;;2.55;;
15096;SDS011;7649;52.084;7.478;2023-07-20T00:05:43;2.67;;;2.47;;
15096;SDS011;7649;52.084;7.478;2023-07-20T00:08:13;3.72;;;2.72;;
15096;SDS011;7649;52.084;7.478;2023-07-20T00:10:41;3.25;;;2.95;;
15096;SDS011;7649;52.084;7.478;2023-07-20T00:13:10;4.18;;;3.20;;
15096;SDS011;7649;52.084;7.478;2023-07-20T00:15:39;4.88;;;3.30;;
15096;SDS011;7649;52.084;7.478;2023-07-20T00:18:07;5.07;;;3.47;;
15096;SDS011;7649;52.084;7.478;2023-07-20T00:20:35;4.47;;;3.58;;
15096;SDS011;7649;52.084;7.478;2023-07-20T00:23:04;4.03;;;2.95;;
15096;SDS011;7649;52.084;7.478;2023-07-20T00:25:34;3.20;;;3.00;;
15096;SDS011;7649;52.084;7.478;2023-07-20T00:28:03;3.85;;;3.50;;
15096;SDS011;7649;52.084;7.478;2023-07-20T00:30:31;3.90;;;3.13;;
15096;SDS011;7649;52.084;7.478;2023-07-20T00:32:59;4.22;;;3.83;;
15096;SDS011;7649;52.084;7.478;2023-07-20T00:35:27;5.43;;;4.13;;
15096;SDS011;7649;52.084;7.478;2023-07-20T00:37:56;4.55;;;3.78;;
15096;SDS011;7649;52.084;7.478;2023-07-20T00:40:24;4.38;;;3.88;;
15096;SDS011;7649;52.084;7.478;2023-07-20T00:42:53;4.72;;;3.70;;
15096;SDS011;7649;52.084;7.478;2023-07-20T00:45:22;6.32;;;3.65;;
15096;SDS011;7649;52.084;7.478;2023-07-20T00:47:50;4.40;;;3.67;;
15096;SDS011;7649;52.084;7.478;2023-07-20T00:50:18;5.43;;;4.38;;
15096;SDS011;7649;52.084;7.478;2023-07-20T00:52:47;5.10;;;4.15;;
15096;SDS011;7649;52.084;7.478;2023-07-20T00:55:16;4.70;;;4.15;;
15096;SDS011;7649;52.084;7.478;2023-07-20T00:57:44;4.65;;;4.25;;
15096;SDS011;7649;52.084;7.478;2023-07-20T01:00:14;5.93;;;3.85;;
15096;SDS011;7649;52.084;7.478;2023-07-20T01:02:43;6.45;;;4.22;;
15096;SDS011;7649;52.084;7.478;2023-07-20T01:05:11;4.43;;;4.03;;
15096;SDS011;7649;52.084;7.478;2023-07-20T01:07:43;7.57;;;5.20;;
15096;SDS011;7649;52.084;7.478;2023-07-20T01:10:15;4.80;;;4.25;;
15096;SDS011;7649;52.084;7.478;2023-07-20T01:12:46;4.38;;;4.00;;
15096;SDS011;7649;52.084;7.478;2023-07-20T01:15:16;6.10;;;4.15;;
15096;SDS011;7649;52.084;7.478;2023-07-20T01:17:45;5.95;;;4.32;;
15096;SDS011;7649;52.084;7.478;2023-07-20T01:20:13;5.18;;;4.68;;
15096;SDS011;7649;52.084;7.478;2023-07-20T01:22:47;5.25;;;4.75;;
15096;SDS011;7649;52.084;7.478;2023-07-20T01:25:22;4.63;;;4.25;;
15096;SDS011;7649;52.084;7.478;2023-07-20T01:28:02;6.83;;;4.53;;
15096;SDS011;7649;52.084;7.478;2023-07-20T01:30:45;7.82;;;4.45;;
15096;SDS011;7649;52.084;7.478;2023-07-20T01:33:17;4.70;;;4.20;;
15096;SDS011;7649;52.084;7.478;2023-07-20T01:35:50;4.78;;;4.32;;
15096;SDS011;7649;52.084;7.478;2023-07-20T01:38:19;6.68;;;4.72;;
15096;SDS011;7649;52.084;7.478;2023-07-20T01:40:47;5.10;;;4.60;;
15096;SDS011;7649;52.084;7.478;2023-07-20T01:43:16;5.40;;;4.90;;
15096;SDS011;7649;52.084;7.478;2023-07-20T01:45:44;5.90;;;4.77;;
15096;SDS011;7649;52.084;7.478;2023-07-20T01:48:13;8.20;;;5.75;;
15096;SDS011;7649;52.084;7.478;2023-07-20T01:50:43;11.03;;;6.90;;
15096;SDS011;7649;52.084;7.478;2023-07-20T01:53:11;10.57;;;6.63;;
15096;SDS011;7649;52.084;7.478;2023-07-20T01:55:39;7.53;;;6.40;;
15096;SDS011;7649;52.084;7.478;2023-07-20T01:58:08;9.37;;;6.13;;
15096;SDS011;7649;52.084;7.478;2023-07-20T02:00:36;8.70;;;6.27;;
15096;SDS011;7649;52.084;7.478;2023-07-20T02:03:05;6.40;;;5.80;;
15096;SDS011;7649;52.084;7.478;2023-07-20T02:05:33;9.03;;;6.50;;
15096;SDS011;7649;52.084;7.478;2023-07-20T02:08:03;10.20;;;9.30;;
15096;SDS011;7649;52.084;7.478;2023-07-20T02:10:32;7.40;;;6.70;;
15096;SDS011;7649;52.084;7.478;2023-07-20T02:13:00;6.70;;;6.10;;
15096;SDS011;7649;52.084;7.478;2023-07-20T02:15:28;9.80;;;6.47;;
15096;SDS011;7649;52.084;7.478;2023-07-20T02:17:56;7.43;;;6.67;;
15096;SDS011;7649;52.084;7.478;2023-07-20T02:20:25;7.13;;;6.53;;
15096;SDS011;7649;52.084;7.478;2023-07-20T02:22:53;7.00;;;6.40;;
15096;SDS011;7649;52.084;7.478;2023-07-20T02:25:24;9.00;;;6.90;;
15096;SDS011;7649;52.084;7.478;2023-07-20T02:27:52;7.40;;;6.60;;
15096;SDS011;7649;52.084;7.478;2023-07-20T02:30:20;6.93;;;6.40;;
15096;SDS011;7649;52.084;7.478;2023-07-20T02:32:48;7.50;;;6.23;;
15096;SDS011;7649;52.084;7.478;2023-07-20T02:35:17;7.40;;;6.70;;
15096;SDS011;7649;52.084;7.478;2023-07-20T02:37:45;7.23;;;6.57;;
15096;SDS011;7649;52.084;7.478;2023-07-20T02:40:13;7.77;;;7.07;;
15096;SDS011;7649;52.084;7.478;2023-07-20T02:42:43;6.77;;;6.03;;
15096;SDS011;7649;52.084;7.478;2023-07-20T02:45:11;7.77;;;7.00;;
15096;SDS011;7649;52.084;7.478;2023-07-20T02:47:39;7.67;;;6.97;;
15096;SDS011;7649;52.084;7.478;2023-07-20T02:50:08;6.67;;;6.03;;
15096;SDS011;7649;52.084;7.478;2023-07-20T02:52:39;7.10;;;6.50;;
15096;SDS011;7649;52.084;7.478;2023-07-20T02:55:08;6.87;;;6.27;;
15096;SDS011;7649;52.084;7.478;2023-07-20T02:57:36;5.93;;;5.43;;
15096;SDS011;7649;52.084;7.478;2023-07-20T03:00:06;6.23;;;5.70;;
15096;SDS011;7649;52.084;7.478;2023-07-20T03:02:35;6.03;;;5.63;;
15096;SDS011;7649;52.084;7.478;2023-07-20T03:05:04;8.63;;;5.67;;
15096;SDS011;7649;52.084;7.478;2023-07-20T03:07:33;6.30;;;5.70;;
15096;SDS011;7649;52.084;7.478;2023-07-20T03:10:01;6.50;;;6.00;;
15096;SDS011;7649;52.084;7.478;2023-07-20T03:12:30;6.50;;;6.00;;
15096;SDS011;7649;52.084;7.478;2023-07-20T03:15:00;6.70;;;6.17;;
15096;SDS011;7649;52.084;7.478;2023-07-20T03:17:30;6.47;;;5.73;;
15096;SDS011;7649;52.084;7.478;2023-07-20T03:19:58;6.50;;;5.90;;
15096;SDS011;7649;52.084;7.478;2023-07-20T03:22:27;7.07;;;6.57;;
15096;SDS011;7649;52.084;7.478;2023-07-20T03:24:55;7.80;;;7.13;;
15096;SDS011;7649;52.084;7.478;2023-07-20T03:27:24;9.17;;;8.37;;
15096;SDS011;7649;52.084;7.478;2023-07-20T03:29:52;9.67;;;8.67;;
15096;SDS011;7649;52.084;7.478;2023-07-20T03:32:20;9.40;;;8.70;;
15096;SDS011;7649;52.084;7.478;2023-07-20T03:34:50;9.57;;;8.77;;
15096;SDS011;7649;52.084;7.478;2023-07-20T03:37:18;9.20;;;8.50;;
15096;SDS011;7649;52.084;7.478;2023-07-20T03:39:47;9.50;;;8.77;;
15096;SDS011;7649;52.084;7.478;2023-07-20T03:42:16;9.97;;;9.07;;
15096;SDS011;7649;52.084;7.478;2023-07-20T03:44:44;9.80;;;8.90;;
15096;SDS011;7649;52.084;7.478;2023-07-20T03:47:12;10.20;;;9.20;;
15096;SDS011;7649;52.084;7.478;2023-07-20T03:49:40;9.67;;;8.97;;
15096;SDS011;7649;52.084;7.478;2023-07-20T03:52:10;8.37;;;7.70;;
15096;SDS011;7649;52.084;7.478;2023-07-20T03:54:38;8.03;;;7.33;;
15096;SDS011;7649;52.084;7.478;2023-07-20T03:57:07;8.33;;;7.73;;
15096;SDS011;7649;52.084;7.478;2023-07-20T03:59:36;8.97;;;8.27;;
15096;SDS011;7649;52.084;7.478;2023-07-20T04:02:05;8.80;;;8.00;;
15096;SDS011;7649;52.084;7.478;2023-07-20T04:04:33;7.67;;;7.07;;
15096;SDS011;7649;52.084;7.478;2023-07-20T04:07:01;7.33;;;6.83;;
15096;SDS011;7649;52.084;7.478;2023-07-20T04:09:31;8.40;;;7.60;;
15096;SDS011;7649;52.084;7.478;2023-07-20T04:11:59;7.23;;;6.63;;
15096;SDS011;7649;52.084;7.478;2023-07-20T04:14:28;7.67;;;7.17;;
15096;SDS011;7649;52.084;7.478;2023-07-20T04:16:56;7.13;;;6.63;;
15096;SDS011;7649;52.084;7.478;2023-07-20T04:19:26;7.70;;;6.90;;
15096;SDS011;7649;52.084;7.478;2023-07-20T04:21:54;7.50;;;6.73;;
15096;SDS011;7649;52.084;7.478;2023-07-20T04:24:23;7.03;;;6.43;;
15096;SDS011;7649;52.084;7.478;2023-07-20T04:26:53;8.10;;;7.27;;
15096;SDS011;7649;52.084;7.478;2023-07-20T04:29:21;7.03;;;6.50;;
15096;SDS011;7649;52.084;7.478;2023-07-20T04:31:49;6.33;;;5.73;;
15096;SDS011;7649;52.084;7.478;2023-07-20T04:34:17;7.53;;;6.00;;
15096;SDS011;7649;52.084;7.478;2023-07-20T04:36:46;6.43;;;5.83;;
15096;SDS011;7649;52.084;7.478;2023-07-20T04:39:14;6.67;;;6.07;;
15096;SDS011;7649;52.084;7.478;2023-07-20T04:41:57;6.30;;;5.70;;
15096;SDS011;7649;52.084;7.478;2023-07-20T04:44:26;6.47;;;5.90;;
15096;SDS011;7649;52.084;7.478;2023-07-20T04:46:54;6.43;;;5.83;;
15096;SDS011;7649;52.084;7.478;2023-07-20T04:49:22;5.87;;;5.37;;
15096;SDS011;7649;52.084;7.478;2023-07-20T04:51:51;5.50;;;5.10;;
15096;SDS011;7649;52.084;7.478;2023-07-20T04:54:19;5.50;;;5.03;;
15096;SDS011;7649;52.084;7.478;2023-07-20T04:56:47;5.80;;;5.20;;
15096;SDS011;7649;52.084;7.478;2023-07-20T04:59:18;6.10;;;5.47;;
15096;SDS011;7649;52.084;7.478;2023-07-20T05:01:46;6.40;;;5.20;;
15096;SDS011;7649;52.084;7.478;2023-07-20T05:04:14;5.67;;;5.10;;
15096;SDS011;7649;52.084;7.478;2023-07-20T05:06:44;5.60;;;5.23;;
15096;SDS011;7649;52.084;7.478;2023-07-20T05:09:12;6.77;;;5.33;;
15096;SDS011;7649;52.084;7.478;2023-07-20T05:11:41;6.17;;;5.50;;
15096;SDS011;7649;52.084;7.478;2023-07-20T05:14:11;5.53;;;5.13;;
15096;SDS011;7649;52.084;7.478;2023-07-20T05:16:41;6.43;;;5.83;;
15096;SDS011;7649;52.084;7.478;2023-07-20T05:19:09;6.43;;;5.93;;
15096;SDS011;7649;52.084;7.478;2023-07-20T05:21:37;7.37;;;6.67;;
15096;SDS011;7649;52.084;7.478;2023-07-20T05:24:06;6.60;;;6.10;;
15096;SDS011;7649;52.084;7.478;2023-07-20T05:26:34;5.80;;;5.40;;
15096;SDS011;7649;52.084;7.478;2023-07-20T05:29:04;6.90;;;6.40;;
15096;SDS011;7649;52.084;7.478;2023-07-20T05:31:35;6.40;;;5.83;;
15096;SDS011;7649;52.084;7.478;2023-07-20T05:34:05;5.70;;;5.30;;
15096;SDS011;7649;52.084;7.478;2023-07-20T05:36:38;5.60;;;5.03;;
15096;SDS011;7649;52.084;7.478;2023-07-20T05:39:06;7.07;;;5.37;;
15096;SDS011;7649;52.084;7.478;2023-07-20T05:41:35;4.77;;;4.37;;
15096;SDS011;7649;52.084;7.478;2023-07-20T05:44:08;4.80;;;4.30;;
15096;SDS011;7649;52.084;7.478;2023-07-20T05:47:00;4.63;;;4.20;;
15096;SDS011;7649;52.084;7.478;2023-07-20T05:49:31;4.20;;;3.80;;
15096;SDS011;7649;52.084;7.478;2023-07-20T05:51:59;3.77;;;3.43;;
15096;SDS011;7649;52.084;7.478;2023-07-20T05:54:28;3.58;;;3.28;;
15096;SDS011;7649;52.084;7.478;2023-07-20T05:56:56;3.20;;;2.92;;
15096;SDS011;7649;52.084;7.478;2023-07-20T05:59:24;3.58;;;3.28;;
15096;SDS011;7649;52.084;7.478;2023-07-20T06:01:55;3.20;;;3.00;;
15096;SDS011;7649;52.084;7.478;2023-07-20T06:04:24;3.55;;;3.22;;
15096;SDS011;7649;52.084;7.478;2023-07-20T06:06:53;3.53;;;3.22;;
15096;SDS011;7649;52.084;7.478;2023-07-20T06:09:25;3.40;;;3.20;;
15096;SDS011;7649;52.084;7.478;2023-07-20T06:11:54;5.40;;;3.83;;
15096;SDS011;7649;52.084;7.478;2023-07-20T06:14:23;3.90;;;3.25;;
15096;SDS011;7649;52.084;7.478;2023-07-20T06:16:51;3.55;;;3.25;;
15096;SDS011;7649;52.084;7.478;2023-07-20T06:19:20;3.20;;;3.00;;
15096;SDS011;7649;52.084;7.478;2023-07-20T06:21:49;3.45;;;3.15;;
15096;SDS011;7649;52.084;7.478;2023-07-20T06:24:20;4.90;;;3.20;;
15096;SDS011;7649;52.084;7.478;2023-07-20T06:26:49;2.85;;;2.70;;
15096;SDS011;7649;52.084;7.478;2023-07-20T06:29:17;3.20;;;3.00;;
15096;SDS011;7649;52.084;7.478;2023-07-20T06:31:45;3.42;;;2.90;;
15096;SDS011;7649;52.084;7.478;2023-07-20T06:34:14;2.92;;;2.72;;
15096;SDS011;7649;52.084;7.478;2023-07-20T06:36:43;2.65;;;2.55;;
15096;SDS011;7649;52.084;7.478;2023-07-20T06:39:11;3.95;;;2.70;;
15096;SDS011;7649;52.084;7.478;2023-07-20T06:41:44;2.78;;;2.58;;
15096;SDS011;7649;52.084;7.478;2023-07-20T06:44:13;3.17;;;2.97;;
15096;SDS011;7649;52.084;7.478;2023-07-20T06:46:41;3.38;;;3.08;;
15096;SDS011;7649;52.084;7.478;2023-07-20T06:49:09;2.75;;;2.55;;
15096;SDS011;7649;52.084;7.478;2023-07-20T06:51:41;2.88;;;2.67;;
15096;SDS011;7649;52.084;7.478;2023-07-20T06:54:09;2.75;;;2.55;;
15096;SDS011;7649;52.084;7.478;2023-07-20T06:56:38;3.92;;;2.97;;
15096;SDS011;7649;52.084;7.478;2023-07-20T06:59:13;2.80;;;2.60;;
15096;SDS011;7649;52.084;7.478;2023-07-20T07:01:41;3.13;;;2.80;;
15096;SDS011;7649;52.084;7.478;2023-07-20T07:04:10;5.10;;;2.80;;
15096;SDS011;7649;52.084;7.478;2023-07-20T07:06:38;2.40;;;2.30;;
15096;SDS011;7649;52.084;7.478;2023-07-20T07:09:07;2.92;;;2.72;;
15096;SDS011;7649;52.084;7.478;2023-07-20T07:11:36;3.03;;;2.58;;
15096;SDS011;7649;52.084;7.478;2023-07-20T07:14:04;2.35;;;2.20;;
15096;SDS011;7649;52.084;7.478;2023-07-20T07:16:35;2.50;;;2.30;;
15096;SDS011;7649;52.084;7.478;2023-07-20T07:19:05;2.60;;;2.40;;
15096;SDS011;7649;52.084;7.478;2023-07-20T07:21:35;2.47;;;2.25;;
15096;SDS011;7649;52.084;7.478;2023-07-20T07:24:03;5.30;;;2.50;;
15096;SDS011;7649;52.084;7.478;2023-07-20T07:26:33;2.30;;;2.10;;
15096;SDS011;7649;52.084;7.478;2023-07-20T07:29:01;2.08;;;1.92;;
15096;SDS011;7649;52.084;7.478;2023-07-20T07:31:30;2.60;;;1.92;;
15096;SDS011;7649;52.084;7.478;2023-07-20T07:34:00;2.80;;;1.58;;
15096;SDS011;7649;52.084;7.478;2023-07-20T07:36:28;2.00;;;1.90;;
15096;SDS011;7649;52.084;7.478;2023-07-20T07:38:57;2.05;;;1.63;;
15096;SDS011;7649;52.084;7.478;2023-07-20T07:41:45;2.05;;;1.70;;
15096;SDS011;7649;52.084;7.478;2023-07-20T07:44:14;1.58;;;1.52;;
15096;SDS011;7649;52.084;7.478;2023-07-20T07:46:43;2.85;;;1.88;;
15096;SDS011;7649;52.084;7.478;2023-07-20T07:49:14;1.77;;;1.20;;
15096;SDS011;7649;52.084;7.478;2023-07-20T07:54:53;2.03;;;1.38;;
15096;SDS011;7649;52.084;7.478;2023-07-20T07:57:26;1.85;;;1.33;;
15096;SDS011;7649;52.084;7.478;2023-07-20T07:59:55;1.60;;;1.50;;
15096;SDS011;7649;52.084;7.478;2023-07-20T08:02:23;2.13;;;1.17;;
15096;SDS011;7649;52.084;7.478;2023-07-20T08:04:56;1.23;;;1.00;;
15096;SDS011;7649;52.084;7.478;2023-07-20T08:07:25;2.13;;;1.50;;
15096;SDS011;7649;52.084;7.478;2023-07-20T08:09:55;1.33;;;0.90;;
15096;SDS011;7649;52.084;7.478;2023-07-20T08:12:24;1.50;;;0.95;;
15096;SDS011;7649;52.084;7.478;2023-07-20T08:14:54;2.50;;;1.45;;
15096;SDS011;7649;52.084;7.478;2023-07-20T08:17:23;1.80;;;0.98;;
15096;SDS011;7649;52.084;7.478;2023-07-20T08:19:53;1.58;;;1.02;;
15096;SDS011;7649;52.084;7.478;2023-07-20T08:22:22;3.20;;;1.35;;
15096;SDS011;7649;52.084;7.478;2023-07-20T08:24:50;1.08;;;0.98;;
15096;SDS011;7649;52.084;7.478;2023-07-20T08:27:19;0.98;;;0.95;;
15096;SDS011;7649;52.084;7.478;2023-07-20T08:29:48;3.00;;;0.70;;
15096;SDS011;7649;52.084;7.478;2023-07-20T08:32:17;1.08;;;0.82;;
15096;SDS011;7649;52.084;7.478;2023-07-20T08:34:47;1.20;;;0.98;;
15096;SDS011;7649;52.084;7.478;2023-07-20T08:37:18;1.55;;;0.82;;
15096;SDS011;7649;52.084;7.478;2023-07-20T08:39:47;1.80;;;1.10;;
15096;SDS011;7649;52.084;7.478;2023-07-20T08:42:15;2.05;;;1.10;;
15096;SDS011;7649;52.084;7.478;2023-07-20T08:44:45;1.70;;;0.90;;
15096;SDS011;7649;52.084;7.478;2023-07-20T08:47:14;2.28;;;1.00;;
15096;SDS011;7649;52.084;7.478;2023-07-20T08:49:44;5.53;;;1.33;;
15096;SDS011;7649;52.084;7.478;2023-07-20T08:52:18;1.63;;;1.00;;
15096;SDS011;7649;52.084;7.478;2023-07-20T08:54:47;1.30;;;1.00;;
15096;SDS011;7649;52.084;7.478;2023-07-20T08:57:15;1.20;;;1.10;;
15096;SDS011;7649;52.084;7.478;2023-07-20T08:59:44;1.42;;;0.80;;
15096;SDS011;7649;52.084;7.478;2023-07-20T09:02:16;0.80;;;0.80;;
15096;SDS011;7649;52.084;7.478;2023-07-20T09:04:45;1.20;;;0.98;;
15096;SDS011;7649;52.084;7.478;2023-07-20T09:07:13;1.42;;;1.00;;
15096;SDS011;7649;52.084;7.478;2023-07-20T09:09:43;1.50;;;1.00;;
15096;SDS011;7649;52.084;7.478;2023-07-20T09:12:13;1.50;;;1.10;;
15096;SDS011;7649;52.084;7.478;2023-07-20T09:14:43;3.58;;;1.20;;
15096;SDS011;7649;52.084;7.478;2023-07-20T09:17:14;1.98;;;1.33;;
15096;SDS011;7649;52.084;7.478;2023-07-20T09:19:46;3.45;;;0.82;;
15096;SDS011;7649;52.084;7.478;2023-07-20T09:22:15;3.83;;;0.93;;
15096;SDS011;7649;52.084;7.478;2023-07-20T09:24:45;0.85;;;0.85;;
15096;SDS011;7649;52.084;7.478;2023-07-20T09:27:14;0.82;;;0.70;;
15096;SDS011;7649;52.084;7.478;2023-07-20T09:29:51;0.82;;;0.70;;
15096;SDS011;7649;52.084;7.478;2023-07-20T09:32:20;1.75;;;1.00;;
15096;SDS011;7649;52.084;7.478;2023-07-20T09:34:51;0.70;;;0.70;;
15096;SDS011;7649;52.084;7.478;2023-07-20T09:37:20;1.52;;;0.90;;
15096;SDS011;7649;52.084;7.478;2023-07-20T09:39:51;2.25;;;0.80;;
15096;SDS011;7649;52.084;7.478;2023-07-20T09:42:23;2.00;;;0.90;;
15096;SDS011;7649;52.084;7.478;2023-07-20T09:44:54;0.70;;;0.60;;
15096;SDS011;7649;52.084;7.478;2023-07-20T09:47:24;0.90;;;0.73;;
15096;SDS011;7649;52.084;7.478;2023-07-20T09:49:58;1.05;;;0.80;;
15096;SDS011;7649;52.084;7.478;2023-07-20T09:52:30;3.85;;;0.98;;
15096;SDS011;7649;52.084;7.478;2023-07-20T09:55:04;0.90;;;0.90;;
15096;SDS011;7649;52.084;7.478;2023-07-20T09:57:32;1.70;;;0.75;;
15096;SDS011;7649;52.084;7.478;2023-07-20T10:00:02;1.00;;;0.60;;
15096;SDS011;7649;52.084;7.478;2023-07-20T10:02:40;1.10;;;1.00;;
15096;SDS011;7649;52.084;7.478;2023-07-20T10:05:11;0.82;;;0.75;;
15096;SDS011;7649;52.084;7.478;2023-07-20T10:07:43;0.70;;;0.65;;
15096;SDS011;7649;52.084;7.478;2023-07-20T10:10:14;0.40;;;0.40;;
15096;SDS011;7649;52.084;7.478;2023-07-20T10:12:44;1.67;;;0.82;;
15096;SDS011;7649;52.084;7.478;2023-07-20T10:15:16;0.55;;;0.52;;
15096;SDS011;7649;52.084;7.478;2023-07-20T10:17:49;1.55;;;0.70;;
15096;SDS011;7649;52.084;7.478;2023-07-20T10:20:21;2.58;;;1.10;;
15096;SDS011;7649;52.084;7.478;2023-07-20T10:22:51;0.85;;;0.80;;
15096;SDS011;7649;52.084;7.478;2023-07-20T10:25:24;2.75;;;0.77;;
15096;SDS011;7649;52.084;7.478;2023-07-20T10:27:52;1.58;;;0.90;;
15096;SDS011;7649;52.084;7.478;2023-07-20T10:30:21;0.98;;;0.80;;
15096;SDS011;7649;52.084;7.478;2023-07-20T10:32:50;0.73;;;0.73;;
15096;SDS011;7649;52.084;7.478;2023-07-20T10:35:20;1.60;;;0.80;;
15096;SDS011;7649;52.084;7.478;2023-07-20T10:37:51;3.63;;;1.00;;
15096;SDS011;7649;52.084;7.478;2023-07-20T10:40:31;0.63;;;0.63;;
15096;SDS011;7649;52.084;7.478;2023-07-20T10:43:00;0.80;;;0.80;;
15096;SDS011;7649;52.084;7.478;2023-07-20T10:45:33;1.80;;;0.90;;
15096;SDS011;7649;52.084;7.478;2023-07-20T10:48:03;0.70;;;0.55;;
15096;SDS011;7649;52.084;7.478;2023-07-20T10:50:32;0.70;;;0.60;;
15096;SDS011;7649;52.084;7.478;2023-07-20T10:53:04;2.70;;;0.60;;
15096;SDS011;7649;52.084;7.478;2023-07-20T10:55:34;0.47;;;0.45;;
15096;SDS011;7649;52.084;7.478;2023-07-20T10:58:06;0.73;;;0.50;;
15096;SDS011;7649;52.084;7.478;2023-07-20T11:00:35;0.47;;;0.47;;
15096;SDS011;7649;52.084;7.478;2023-07-20T11:03:03;0.52;;;0.50;;
15096;SDS011;7649;52.084;7.478;2023-07-20T11:05:37;1.40;;;0.55;;
15096;SDS011;7649;52.084;7.478;2023-07-20T11:08:09;1.17;;;0.70;;
15096;SDS011;7649;52.084;7.478;2023-07-20T11:10:39;3.47;;;1.17;;
15096;SDS011;7649;52.084;7.478;2023-07-20T11:13:21;0.82;;;0.60;;
15096;SDS011;7649;52.084;7.478;2023-07-20T11:16:04;2.97;;;0.68;;
15096;SDS011;7649;52.084;7.478;2023-07-20T11:18:33;0.60;;;0.60;;
15096;SDS011;7649;52.084;7.478;2023-07-20T11:21:09;1.38;;;0.77;;
15096;SDS011;7649;52.084;7.478;2023-07-20T11:23:38;1.27;;;0.80;;
15096;SDS011;7649;52.084;7.478;2023-07-20T11:26:07;1.20;;;1.10;;
15096;SDS011;7649;52.084;7.478;2023-07-20T11:28:37;1.27;;;0.63;;
15096;SDS011;7649;52.084;7.478;2023-07-20T11:31:05;0.68;;;0.57;;
15096;SDS011;7649;52.084;7.478;2023-07-20T11:33:34;1.23;;;0.80;;
15096;SDS011;7649;52.084;7.478;2023-07-20T11:36:02;0.90;;;0.80;;
15096;SDS011;7649;52.084;7.478;2023-07-20T11:38:51;2.47;;;0.70;;
15096;SDS011;7649;52.084;7.478;2023-07-20T11:41:21;0.57;;;0.40;;
15096;SDS011;7649;52.084;7.478;2023-07-20T11:43:49;1.92;;;0.60;;
15096;SDS011;7649;52.084;7.478;2023-07-20T11:46:18;1.42;;;1.20;;
15096;SDS011;7649;52.084;7.478;2023-07-20T11:48:47;1.90;;;0.90;;
15096;SDS011;7649;52.084;7.478;2023-07-20T11:51:16;1.10;;;0.60;;
15096;SDS011;7649;52.084;7.478;2023-07-20T11:53:44;0.85;;;0.85;;
15096;SDS011;7649;52.084;7.478;2023-07-20T11:56:14;0.50;;;0.50;;
15096;SDS011;7649;52.084;7.478;2023-07-20T11:58:47;0.80;;;0.65;;
15096;SDS011;7649;52.084;7.478;2023-07-20T12:01:17;0.40;;;0.40;;
15096;SDS011;7649;52.084;7.478;2023-07-20T12:03:47;1.30;;;1.15;;
15096;SDS011;7649;52.084;7.478;2023-07-20T12:08:47;1.92;;;0.90;;
15096;SDS011;7649;52.084;7.478;2023-07-20T12:11:29;1.58;;;0.85;;
15096;SDS011;7649;52.084;7.478;2023-07-20T12:13:59;0.75;;;0.73;;
15096;SDS011;7649;52.084;7.478;2023-07-20T12:16:42;1.95;;;0.90;;
15096;SDS011;7649;52.084;7.478;2023-07-20T12:19:11;0.73;;;0.55;;
15096;SDS011;7649;52.084;7.478;2023-07-20T12:21:40;0.82;;;0.52;;
15096;SDS011;7649;52.084;7.478;2023-07-20T12:24:10;0.70;;;0.60;;
15096;SDS011;7649;52.084;7.478;2023-07-20T12:26:38;0.68;;;0.50;;
15096;SDS011;7649;52.084;7.478;2023-07-20T12:29:08;0.82;;;0.82;;
15096;SDS011;7649;52.084;7.478;2023-07-20T12:31:36;0.80;;;0.80;;
15096;SDS011;7649;52.084;7.478;2023-07-20T12:34:05;1.00;;;0.90;;
15096;SDS011;7649;52.084;7.478;2023-07-20T12:36:34;1.20;;;0.85;;
15096;SDS011;7649;52.084;7.478;2023-07-20T12:39:02;0.73;;;0.73;;
15096;SDS011;7649;52.084;7.478;2023-07-20T12:41:31;0.85;;;0.70;;
15096;SDS011;7649;52.084;7.478;2023-07-20T12:43:59;1.13;;;1.10;;
15096;SDS011;7649;52.084;7.478;2023-07-20T12:46:29;0.77;;;0.77;;
15096;SDS011;7649;52.084;7.478;2023-07-20T12:49:01;2.00;;;0.60;;
15096;SDS011;7649;52.084;7.478;2023-07-20T12:51:30;1.45;;;0.70;;
15096;SDS011;7649;52.084;7.478;2023-07-20T12:54:00;0.77;;;0.77;;
15096;SDS011;7649;52.084;7.478;2023-07-20T12:56:28;1.40;;;0.75;;
15096;SDS011;7649;52.084;7.478;2023-07-20T12:58:59;1.15;;;0.70;;
15096;SDS011;7649;52.084;7.478;2023-07-20T13:01:30;0.63;;;0.60;;
15096;SDS011;7649;52.084;7.478;2023-07-20T13:03:59;0.25;;;0.25;;
15096;SDS011;7649;52.084;7.478;2023-07-20T13:06:30;3.70;;;1.00;;
15096;SDS011;7649;52.084;7.478;2023-07-20T13:09:01;2.92;;;1.08;;
15096;SDS011;7649;52.084;7.478;2023-07-20T13:11:31;0.95;;;0.75;;
15096;SDS011;7649;52.084;7.478;2023-07-20T13:13:59;16.58;;;7.78;;
15096;SDS011;7649;52.084;7.478;2023-07-20T13:16:27;1.10;;;1.00;;
15096;SDS011;7649;52.084;7.478;2023-07-20T13:18:57;1.10;;;0.70;;
15096;SDS011;7649;52.084;7.478;2023-07-20T13:21:25;0.98;;;0.80;;
15096;SDS011;7649;52.084;7.478;2023-07-20T13:23:54;1.15;;;0.90;;
15096;SDS011;7649;52.084;7.478;2023-07-20T13:26:22;1.55;;;1.25;;
15096;SDS011;7649;52.084;7.478;2023-07-20T13:28:51;1.20;;;0.98;;
15096;SDS011;7649;52.084;7.478;2023-07-20T13:31:21;0.85;;;0.85;;
15096;SDS011;7649;52.084;7.478;2023-07-20T13:33:50;0.93;;;0.93;;
15096;SDS011;7649;52.084;7.478;2023-07-20T13:36:26;1.15;;;1.08;;
15096;SDS011;7649;52.084;7.478;2023-07-20T13:38:55;1.98;;;1.02;;
15096;SDS011;7649;52.084;7.478;2023-07-20T13:41:25;3.38;;;0.73;;
15096;SDS011;7649;52.084;7.478;2023-07-20T13:43:55;0.93;;;0.85;;
15096;SDS011;7649;52.084;7.478;2023-07-20T13:46:24;1.60;;;0.68;;
15096;SDS011;7649;52.084;7.478;2023-07-20T13:48:55;1.35;;;0.77;;
15096;SDS011;7649;52.084;7.478;2023-07-20T13:51:24;1.15;;;0.95;;
15096;SDS011;7649;52.084;7.478;2023-07-20T13:53:55;0.45;;;0.43;;
15096;SDS011;7649;52.084;7.478;2023-07-20T13:56:23;0.82;;;0.55;;
15096;SDS011;7649;52.084;7.478;2023-07-20T13:58:52;1.27;;;1.17;;
15096;SDS011;7649;52.084;7.478;2023-07-20T14:01:24;2.58;;;0.95;;
15096;SDS011;7649;52.084;7.478;2023-07-20T14:03:55;1.73;;;0.90;;
15096;SDS011;7649;52.084;7.478;2023-07-20T14:06:29;0.52;;;0.52;;
15096;SDS011;7649;52.084;7.478;2023-07-20T14:09:00;3.35;;;0.80;;
15096;SDS011;7649;52.084;7.478;2023-07-20T14:11:28;1.05;;;0.93;;
15096;SDS011;7649;52.084;7.478;2023-07-20T14:14:00;0.80;;;0.80;;
15096;SDS011;7649;52.084;7.478;2023-07-20T14:16:28;1.98;;;1.10;;
15096;SDS011;7649;52.084;7.478;2023-07-20T14:18:59;1.45;;;0.98;;
15096;SDS011;7649;52.084;7.478;2023-07-20T14:21:29;1.08;;;0.85;;
15096;SDS011;7649;52.084;7.478;2023-07-20T14:23:58;0.80;;;0.80;;
15096;SDS011;7649;52.084;7.478;2023-07-20T14:26:28;0.85;;;0.85;;
15096;SDS011;7649;52.084;7.478;2023-07-20T14:28:59;3.35;;;3.13;;
15096;SDS011;7649;52.084;7.478;2023-07-20T14:31:28;0.77;;;0.77;;
15096;SDS011;7649;52.084;7.478;2023-07-20T14:33:58;1.55;;;1.38;;
15096;SDS011;7649;52.084;7.478;2023-07-20T14:36:26;1.85;;;0.85;;
15096;SDS011;7649;52.084;7.478;2023-07-20T14:38:56;5.35;;;1.13;;
15096;SDS011;7649;52.084;7.478;2023-07-20T14:41:25;1.48;;;0.80;;
15096;SDS011;7649;52.084;7.478;2023-07-20T14:43:55;2.42;;;1.20;;
15096;SDS011;7649;52.084;7.478;2023-07-20T14:46:23;2.42;;;0.80;;
15096;SDS011;7649;52.084;7.478;2023-07-20T14:48:52;0.98;;;0.90;;
15096;SDS011;7649;52.084;7.478;2023-07-20T14:51:21;1.17;;;0.82;;
15096;SDS011;7649;52.084;7.478;2023-07-20T14:53:49;2.05;;;0.70;;
15096;SDS011;7649;52.084;7.478;2023-07-20T14:56:17;1.63;;;1.50;;
15096;SDS011;7649;52.084;7.478;2023-07-20T14:58:46;1.60;;;1.00;;
15096;SDS011;7649;52.084;7.478;2023-07-20T15:01:16;1.67;;;1.00;;
15096;SDS011;7649;52.084;7.478;2023-07-20T15:03:44;4.78;;;1.90;;
15096;SDS011;7649;52.084;7.478;2023-07-20T15:06:13;1.83;;;0.93;;
15096;SDS011;7649;52.084;7.478;2023-07-20T15:08:41;1.20;;;1.05;;
15096;SDS011;7649;52.084;7.478;2023-07-20T15:11:09;2.17;;;0.98;;
15096;SDS011;7649;52.084;7.478;2023-07-20T15:13:38;1.00;;;0.90;;
15096;SDS011;7649;52.084;7.478;2023-07-20T15:16:10;0.82;;;0.82;;
15096;SDS011;7649;52.084;7.478;2023-07-20T15:18:40;2.30;;;1.15;;
15096;SDS011;7649;52.084;7.478;2023-07-20T15:21:14;0.70;;;0.70;;